createdAt,value
2023-01-13T00:11:58.314Z,10.2
2023-01-13T00:42:07.000Z,10.4
2023-01-13T01:12:10.160Z,10.4
2023-01-13T01:42:14.000Z,10.2
2023-01-13T02:12:23.000Z,9.9
2023-01-13T02:42:28.000Z,10.1
2023-01-13T03:12:30.000Z,9.8
2023-01-13T03:42:35.000Z,9.7
2023-01-13T04:12:35.000Z,9.6
2023-01-13T04:42:45.000Z,8.8
2023-01-13T05:12:56.000Z,8.7
2023-01-13T05:43:03.000Z,8.8
2023-01-13T06:13:10.000Z,8.8
2023-01-13T06:43:11.000Z,9.6
2023-01-13T07:13:12.000Z,9.5
2023-01-13T07:43:21.083Z,9.2
2023-01-13T08:13:24.141Z,9.4
2023-01-13T08:43:26.000Z,9.3
2023-01-13T09:13:28.000Z,9.8
2023-01-13T09:43:32.000Z,10.1
2023-01-13T10:13:41.176Z,10.1
2023-01-13T10:43:42.000Z,10.2
2023-01-13T11:13:45.000Z,10.2
2023-01-13T11:43:46.000Z,5.4
2023-01-13T12:13:49.000Z,5.8
2023-01-13T12:43:52.000Z,6.5
2023-01-13T13:13:54.000Z,6.1
2023-01-13T13:43:57.000Z,7.2
2023-01-13T14:13:57.000Z,7.3
2023-01-13T14:44:02.000Z,7.7
2023-01-13T15:14:05.000Z,7.5
2023-01-13T15:44:11.000Z,6.9
2023-01-13T16:14:13.000Z,4.7
2023-01-13T16:44:15.000Z,4.0
2023-01-13T17:14:17.000Z,4.2
2023-01-13T17:44:29.000Z,4.5
2023-01-13T18:14:31.000Z,4.0
2023-01-13T18:44:37.000Z,3.1
2023-01-13T19:14:38.000Z,1.7
2023-01-13T19:44:42.000Z,1.4
2023-01-13T20:14:46.000Z,1.5
2023-01-13T20:44:54.000Z,2.0
2023-01-13T21:14:58.000Z,2.9
2023-01-13T21:44:58.000Z,3.5
2023-01-13T22:15:08.000Z,3.0
2023-01-13T22:45:10.000Z,2.8
2023-01-13T23:15:19.000Z,2.1
2023-01-13T23:45:21.000Z,2.2
